SWR3WZ LSZH-EPWA
Flight info
| Callsign | SWR3WZ |
|---|---|
| Flight time | 1h 31m |
| Altitude | 35000 |
| Route | DEGES Z2 XEBIX N871 BEPAS DCT ETUDA DCT OKENO Q277 AGAVA |
| Aircraft | A321/M-SDE3FGHIRWY/LB1 |
Departure
| Time | 2026-04-26 14:33 |
|---|---|
| Airport | Zürich Airport (LSZH) |
Arrival
| Time | 2026-04-26 16:04 |
|---|---|
| Airport | Warsaw Chopin Airport (EPWA) |
| Time | Latitude | Longitude | Altitude | Speed | Heading |
|---|---|---|---|---|---|
| 2026-04-26 13:36 | 47.45422 | 8.55873 | 1401 ft | 0 kts | 186° |
| 2026-04-26 14:16 | 47.45420 | 8.55872 | 1397 ft | 0 kts | 186° |
| 2026-04-26 14:25 | 47.45439 | 8.55875 | 1406 ft | 4 kts | 186° |
| 2026-04-26 14:25 | 47.45462 | 8.55879 | 1404 ft | 4 kts | 184° |
| 2026-04-26 14:25 | 47.45488 | 8.55876 | 1403 ft | 4 kts | 148° |
| 2026-04-26 14:26 | 47.45502 | 8.55849 | 1405 ft | 4 kts | 98° |
| 2026-04-26 14:26 | 47.45504 | 8.55810 | 1406 ft | 3 kts | 94° |
| 2026-04-26 14:26 | 47.45504 | 8.55803 | 1405 ft | 0 kts | 96° |
| 2026-04-26 14:28 | 47.45503 | 8.55824 | 1404 ft | 5 kts | 96° |
| 2026-04-26 14:28 | 47.45497 | 8.55893 | 1405 ft | 7 kts | 96° |
| 2026-04-26 14:29 | 47.45493 | 8.55962 | 1400 ft | 6 kts | 96° |
| 2026-04-26 14:29 | 47.45488 | 8.56026 | 1401 ft | 7 kts | 96° |
| 2026-04-26 14:29 | 47.45483 | 8.56094 | 1397 ft | 6 kts | 96° |
| 2026-04-26 14:29 | 47.45479 | 8.56157 | 1397 ft | 6 kts | 96° |
| 2026-04-26 14:30 | 47.45493 | 8.56240 | 1405 ft | 13 kts | 53° |
| 2026-04-26 14:30 | 47.45550 | 8.56348 | 1399 ft | 13 kts | 51° |
| 2026-04-26 14:30 | 47.45596 | 8.56455 | 1401 ft | 12 kts | 82° |
| 2026-04-26 14:30 | 47.45587 | 8.56577 | 1400 ft | 14 kts | 96° |
| 2026-04-26 14:31 | 47.45576 | 8.56729 | 1399 ft | 15 kts | 96° |
| 2026-04-26 14:31 | 47.45566 | 8.56873 | 1397 ft | 14 kts | 96° |
| 2026-04-26 14:31 | 47.45563 | 8.56989 | 1398 ft | 9 kts | 73° |
| 2026-04-26 14:31 | 47.45603 | 8.57020 | 1403 ft | 10 kts | 8° |
| 2026-04-26 14:32 | 47.45655 | 8.57028 | 1398 ft | 5 kts | 1° |
| 2026-04-26 14:32 | 47.45661 | 8.57003 | 1402 ft | 6 kts | 276° |
| 2026-04-26 14:32 | 47.45686 | 8.56665 | 1395 ft | 74 kts | 276° |
| 2026-04-26 14:32 | 47.45765 | 8.55541 | 1400 ft | 144 kts | 276° |
| 2026-04-26 14:33 | 47.45886 | 8.53790 | 1500 ft | 189 kts | 275° |
| 2026-04-26 14:33 | 47.46008 | 8.51895 | 2382 ft | 185 kts | 278° |
| 2026-04-26 14:33 | 47.46138 | 8.50017 | 3223 ft | 182 kts | 279° |
| 2026-04-26 14:33 | 47.46178 | 8.48147 | 3847 ft | 185 kts | 256° |
| 2026-04-26 14:34 | 47.45578 | 8.46485 | 4329 ft | 185 kts | 237° |
| 2026-04-26 14:34 | 47.44944 | 8.44804 | 4769 ft | 193 kts | 242° |
| 2026-04-26 14:34 | 47.44276 | 8.42956 | 4955 ft | 215 kts | 242° |
| 2026-04-26 14:34 | 47.43547 | 8.40916 | 5194 ft | 230 kts | 243° |
| 2026-04-26 14:35 | 47.42614 | 8.38970 | 5592 ft | 236 kts | 220° |
| 2026-04-26 14:35 | 47.41173 | 8.37862 | 6145 ft | 235 kts | 191° |
| 2026-04-26 14:35 | 47.39564 | 8.37908 | 6723 ft | 233 kts | 163° |
| 2026-04-26 14:35 | 47.38182 | 8.39069 | 7224 ft | 234 kts | 135° |
| 2026-04-26 14:36 | 47.37320 | 8.41125 | 7724 ft | 237 kts | 106° |
| 2026-04-26 14:36 | 47.37201 | 8.43518 | 8144 ft | 244 kts | 86° |
| 2026-04-26 14:36 | 47.37345 | 8.46151 | 8264 ft | 266 kts | 85° |
| 2026-04-26 14:36 | 47.37508 | 8.48941 | 8537 ft | 283 kts | 85° |
| 2026-04-26 14:37 | 47.37681 | 8.51907 | 9131 ft | 289 kts | 85° |
| 2026-04-26 14:37 | 47.37848 | 8.54840 | 9751 ft | 294 kts | 85° |
| 2026-04-26 14:37 | 47.38018 | 8.57863 | 10355 ft | 298 kts | 86° |
| 2026-04-26 14:37 | 47.38193 | 8.61052 | 10542 ft | 318 kts | 86° |
| 2026-04-26 14:38 | 47.38377 | 8.64405 | 10664 ft | 338 kts | 85° |
| 2026-04-26 14:38 | 47.38569 | 8.67916 | 10796 ft | 357 kts | 86° |
| 2026-04-26 14:38 | 47.38773 | 8.71650 | 10986 ft | 372 kts | 85° |
| 2026-04-26 14:38 | 47.38913 | 8.74240 | 11289 ft | 376 kts | 85° |
| 2026-04-26 14:39 | 47.39184 | 8.79389 | 11935 ft | 383 kts | 86° |
| 2026-04-26 14:39 | 47.39387 | 8.83323 | 12499 ft | 386 kts | 86° |
| 2026-04-26 14:39 | 47.39593 | 8.87291 | 13021 ft | 389 kts | 85° |
| 2026-04-26 14:39 | 47.39802 | 8.91303 | 13520 ft | 393 kts | 85° |
| 2026-04-26 14:40 | 47.40010 | 8.95339 | 14068 ft | 395 kts | 85° |
| 2026-04-26 14:40 | 47.40217 | 8.99403 | 14472 ft | 400 kts | 85° |
| 2026-04-26 14:40 | 47.40426 | 9.03509 | 14928 ft | 402 kts | 85° |
| 2026-04-26 14:40 | 47.40635 | 9.07630 | 15388 ft | 404 kts | 85° |
| 2026-04-26 14:41 | 47.40841 | 9.11788 | 15807 ft | 407 kts | 85° |
| 2026-04-26 14:41 | 47.41047 | 9.15968 | 16246 ft | 409 kts | 85° |
| 2026-04-26 14:41 | 47.41296 | 9.20170 | 16644 ft | 411 kts | 81° |
| 2026-04-26 14:41 | 47.41863 | 9.24312 | 17015 ft | 413 kts | 76° |
| 2026-04-26 14:42 | 47.42490 | 9.28417 | 17400 ft | 416 kts | 76° |
| 2026-04-26 14:42 | 47.43131 | 9.32587 | 17774 ft | 419 kts | 76° |
| 2026-04-26 14:42 | 47.43775 | 9.36798 | 18132 ft | 421 kts | 76° |
| 2026-04-26 14:42 | 47.44417 | 9.41027 | 18491 ft | 424 kts | 76° |
| 2026-04-26 14:43 | 47.45064 | 9.45297 | 18816 ft | 426 kts | 76° |
| 2026-04-26 14:43 | 47.45711 | 9.49584 | 19143 ft | 429 kts | 76° |
| 2026-04-26 14:43 | 47.46360 | 9.53913 | 19475 ft | 431 kts | 76° |
| 2026-04-26 14:43 | 47.46948 | 9.58275 | 19793 ft | 434 kts | 81° |
| 2026-04-26 14:44 | 47.47118 | 9.62740 | 20114 ft | 438 kts | 91° |
| 2026-04-26 14:44 | 47.46893 | 9.67234 | 20496 ft | 439 kts | 95° |
| 2026-04-26 14:44 | 47.46635 | 9.71732 | 20860 ft | 440 kts | 95° |
| 2026-04-26 14:44 | 47.46384 | 9.76248 | 21204 ft | 443 kts | 94° |
| 2026-04-26 14:45 | 47.46135 | 9.80803 | 21552 ft | 445 kts | 94° |
| 2026-04-26 14:45 | 47.45971 | 9.83822 | 21783 ft | 446 kts | 94° |
| 2026-04-26 14:45 | 47.45634 | 9.89961 | 22236 ft | 450 kts | 94° |
| 2026-04-26 14:45 | 47.45373 | 9.94587 | 22577 ft | 452 kts | 95° |
| 2026-04-26 14:46 | 47.45108 | 9.99229 | 22910 ft | 455 kts | 95° |
| 2026-04-26 14:46 | 47.44840 | 10.03904 | 23245 ft | 457 kts | 95° |
| 2026-04-26 14:46 | 47.44568 | 10.08594 | 23564 ft | 460 kts | 95° |
| 2026-04-26 14:46 | 47.44292 | 10.13319 | 23855 ft | 462 kts | 95° |
| 2026-04-26 14:47 | 47.43992 | 10.18055 | 24111 ft | 464 kts | 98° |
| 2026-04-26 14:47 | 47.43414 | 10.22749 | 24365 ft | 466 kts | 102° |
| 2026-04-26 14:47 | 47.42781 | 10.27446 | 24612 ft | 467 kts | 102° |
| 2026-04-26 14:47 | 47.42141 | 10.32156 | 24890 ft | 469 kts | 102° |
| 2026-04-26 14:48 | 47.41496 | 10.36894 | 25170 ft | 471 kts | 102° |
| 2026-04-26 14:48 | 47.40922 | 10.41595 | 25420 ft | 473 kts | 97° |
| 2026-04-26 14:48 | 47.40770 | 10.46445 | 25702 ft | 474 kts | 88° |
| 2026-04-26 14:48 | 47.41121 | 10.51286 | 25971 ft | 475 kts | 79° |
| 2026-04-26 14:49 | 47.41974 | 10.56001 | 26214 ft | 476 kts | 69° |
| 2026-04-26 14:49 | 47.43122 | 10.60593 | 26449 ft | 478 kts | 69° |
| 2026-04-26 14:49 | 47.44269 | 10.65217 | 26677 ft | 480 kts | 69° |
| 2026-04-26 14:49 | 47.45404 | 10.69860 | 26909 ft | 481 kts | 69° |
| 2026-04-26 14:50 | 47.46536 | 10.74533 | 27091 ft | 483 kts | 69° |
| 2026-04-26 14:50 | 47.47666 | 10.79214 | 27305 ft | 484 kts | 69° |
| 2026-04-26 14:50 | 47.48793 | 10.83899 | 27492 ft | 485 kts | 69° |
| 2026-04-26 14:50 | 47.49931 | 10.88614 | 27692 ft | 487 kts | 69° |
| 2026-04-26 14:51 | 47.51075 | 10.93338 | 27830 ft | 489 kts | 69° |
| 2026-04-26 14:51 | 47.52224 | 10.98083 | 28070 ft | 489 kts | 69° |
| 2026-04-26 14:51 | 47.53365 | 11.02818 | 28328 ft | 489 kts | 69° |
| 2026-04-26 14:51 | 47.54502 | 11.07562 | 28578 ft | 488 kts | 69° |
| 2026-04-26 14:52 | 47.55632 | 11.12296 | 28809 ft | 488 kts | 69° |
| 2026-04-26 14:52 | 47.56761 | 11.17028 | 29057 ft | 487 kts | 69° |
| 2026-04-26 14:52 | 47.57891 | 11.21756 | 29313 ft | 487 kts | 69° |
| 2026-04-26 14:52 | 47.59022 | 11.26490 | 29549 ft | 487 kts | 69° |
| 2026-04-26 14:53 | 47.60148 | 11.31216 | 29765 ft | 486 kts | 69° |
| 2026-04-26 14:53 | 47.61269 | 11.35943 | 30036 ft | 486 kts | 69° |
| 2026-04-26 14:53 | 47.62389 | 11.40673 | 30265 ft | 486 kts | 70° |
| 2026-04-26 14:53 | 47.63454 | 11.45424 | 30484 ft | 486 kts | 71° |
| 2026-04-26 14:54 | 47.64450 | 11.50205 | 30702 ft | 485 kts | 72° |
| 2026-04-26 14:54 | 47.65401 | 11.55003 | 30914 ft | 485 kts | 72° |
| 2026-04-26 14:54 | 47.66334 | 11.59813 | 31101 ft | 486 kts | 73° |
| 2026-04-26 14:54 | 47.67271 | 11.64624 | 31310 ft | 485 kts | 72° |
| 2026-04-26 14:55 | 47.68225 | 11.69434 | 31501 ft | 485 kts | 72° |
| 2026-04-26 14:55 | 47.69193 | 11.74226 | 31721 ft | 485 kts | 72° |
| 2026-04-26 14:55 | 47.70169 | 11.79009 | 31932 ft | 484 kts | 72° |
| 2026-04-26 14:55 | 47.71128 | 11.83795 | 32170 ft | 484 kts | 72° |
| 2026-04-26 14:56 | 47.72215 | 11.88505 | 32376 ft | 482 kts | 65° |
| 2026-04-26 14:56 | 47.73714 | 11.92931 | 32586 ft | 479 kts | 56° |
| 2026-04-26 14:56 | 47.75613 | 11.96898 | 32791 ft | 475 kts | 47° |
| 2026-04-26 14:56 | 47.77905 | 12.00400 | 33003 ft | 471 kts | 38° |
| 2026-04-26 14:57 | 47.80459 | 12.03533 | 33204 ft | 470 kts | 36° |
| 2026-04-26 14:57 | 47.82956 | 12.06574 | 33402 ft | 470 kts | 36° |
| 2026-04-26 14:57 | 47.85454 | 12.09635 | 33611 ft | 470 kts | 36° |
| 2026-04-26 14:57 | 47.87965 | 12.12727 | 33814 ft | 470 kts | 36° |
| 2026-04-26 14:58 | 47.90470 | 12.15824 | 34030 ft | 470 kts | 37° |
| 2026-04-26 14:58 | 47.93004 | 12.18966 | 34229 ft | 469 kts | 37° |
| 2026-04-26 14:58 | 47.95502 | 12.22066 | 34429 ft | 469 kts | 37° |
| 2026-04-26 14:58 | 47.98001 | 12.25159 | 34598 ft | 468 kts | 37° |
| 2026-04-26 14:59 | 47.99656 | 12.27205 | 34741 ft | 468 kts | 36° |
| 2026-04-26 14:59 | 48.02996 | 12.31336 | 34960 ft | 468 kts | 37° |
| 2026-04-26 14:59 | 48.04682 | 12.33421 | 35079 ft | 467 kts | 37° |
| 2026-04-26 15:00 | 48.09693 | 12.39642 | 35204 ft | 466 kts | 37° |
| 2026-04-26 15:00 | 48.14650 | 12.45825 | 35210 ft | 465 kts | 37° |
| 2026-04-26 15:01 | 48.19632 | 12.52057 | 35191 ft | 465 kts | 37° |
| 2026-04-26 15:01 | 48.24591 | 12.58231 | 35212 ft | 465 kts | 35° |
| 2026-04-26 15:02 | 48.29759 | 12.64079 | 35216 ft | 464 kts | 32° |
| 2026-04-26 15:02 | 48.34979 | 12.69712 | 35215 ft | 464 kts | 32° |
| 2026-04-26 15:03 | 48.40195 | 12.75585 | 35218 ft | 466 kts | 39° |
| 2026-04-26 15:03 | 48.44896 | 12.82179 | 35209 ft | 467 kts | 40° |
| 2026-04-26 15:04 | 48.49658 | 12.88873 | 35213 ft | 467 kts | 40° |
| 2026-04-26 15:04 | 48.54455 | 12.95618 | 35215 ft | 468 kts | 40° |
| 2026-04-26 15:05 | 48.59024 | 13.02485 | 35233 ft | 469 kts | 43° |
| 2026-04-26 15:05 | 48.63535 | 13.09652 | 35233 ft | 469 kts | 44° |
| 2026-04-26 15:06 | 48.68023 | 13.16773 | 35229 ft | 469 kts | 43° |
| 2026-04-26 15:06 | 48.72578 | 13.23873 | 35233 ft | 469 kts | 43° |
| 2026-04-26 15:07 | 48.79396 | 13.34500 | 35236 ft | 469 kts | 43° |
| 2026-04-26 15:07 | 48.83935 | 13.41639 | 35228 ft | 469 kts | 43° |
| 2026-04-26 15:08 | 48.88434 | 13.48764 | 35223 ft | 470 kts | 45° |
| 2026-04-26 15:08 | 48.92196 | 13.56959 | 35227 ft | 474 kts | 57° |
| 2026-04-26 15:09 | 48.95557 | 13.65547 | 35236 ft | 475 kts | 57° |
| 2026-04-26 15:09 | 48.98947 | 13.74213 | 35230 ft | 476 kts | 57° |
| 2026-04-26 15:10 | 49.01767 | 13.81440 | 35237 ft | 476 kts | 57° |
| 2026-04-26 15:10 | 49.05690 | 13.91529 | 35244 ft | 475 kts | 57° |
| 2026-04-26 15:11 | 49.09034 | 14.00177 | 35242 ft | 475 kts | 57° |
| 2026-04-26 15:11 | 49.12396 | 14.08896 | 35263 ft | 476 kts | 57° |
| 2026-04-26 15:12 | 49.15755 | 14.17635 | 35256 ft | 476 kts | 57° |
| 2026-04-26 15:12 | 49.19092 | 14.26329 | 35255 ft | 476 kts | 57° |
| 2026-04-26 15:13 | 49.22445 | 14.35094 | 35269 ft | 476 kts | 57° |
| 2026-04-26 15:13 | 49.25782 | 14.43877 | 35278 ft | 476 kts | 57° |
| 2026-04-26 15:14 | 49.29092 | 14.52610 | 35293 ft | 476 kts | 57° |
| 2026-04-26 15:14 | 49.32421 | 14.61409 | 35283 ft | 476 kts | 57° |
| 2026-04-26 15:15 | 49.35723 | 14.70163 | 35277 ft | 476 kts | 57° |
| 2026-04-26 15:15 | 49.39038 | 14.78985 | 35273 ft | 476 kts | 57° |
| 2026-04-26 15:16 | 49.42318 | 14.87771 | 35271 ft | 476 kts | 57° |
| 2026-04-26 15:16 | 49.45611 | 14.96626 | 35296 ft | 476 kts | 57° |
| 2026-04-26 15:17 | 49.48358 | 15.03993 | 35288 ft | 476 kts | 57° |
| 2026-04-26 15:17 | 49.52182 | 15.14293 | 35287 ft | 476 kts | 57° |
| 2026-04-26 15:18 | 49.55456 | 15.23181 | 35284 ft | 476 kts | 57° |
| 2026-04-26 15:18 | 49.58707 | 15.32015 | 35283 ft | 476 kts | 57° |
| 2026-04-26 15:19 | 49.61974 | 15.40913 | 35298 ft | 476 kts | 57° |
| 2026-04-26 15:19 | 49.65237 | 15.49820 | 35290 ft | 476 kts | 57° |
| 2026-04-26 15:20 | 49.68467 | 15.58691 | 35291 ft | 476 kts | 57° |
| 2026-04-26 15:20 | 49.71708 | 15.67634 | 35286 ft | 476 kts | 57° |
| 2026-04-26 15:21 | 49.74920 | 15.76537 | 35278 ft | 476 kts | 57° |
| 2026-04-26 15:21 | 49.78156 | 15.85506 | 35284 ft | 476 kts | 57° |
| 2026-04-26 15:22 | 49.81389 | 15.94486 | 35294 ft | 476 kts | 57° |
| 2026-04-26 15:22 | 49.84588 | 16.03424 | 35283 ft | 476 kts | 57° |
| 2026-04-26 15:23 | 49.87796 | 16.12428 | 35272 ft | 476 kts | 57° |
| 2026-04-26 15:23 | 49.90983 | 16.21378 | 35262 ft | 476 kts | 57° |
| 2026-04-26 15:24 | 49.94180 | 16.30405 | 35263 ft | 476 kts | 57° |
| 2026-04-26 15:24 | 49.97347 | 16.39392 | 35261 ft | 476 kts | 57° |
| 2026-04-26 15:25 | 50.00049 | 16.46872 | 35263 ft | 474 kts | 52° |
| 2026-04-26 15:25 | 50.02732 | 16.52196 | 35262 ft | 466 kts | 41° |
| 2026-04-26 15:25 | 50.05096 | 16.55574 | 35260 ft | 461 kts | 34° |
| 2026-04-26 15:26 | 50.10073 | 16.61935 | 35259 ft | 462 kts | 34° |
| 2026-04-26 15:26 | 50.15003 | 16.68302 | 35284 ft | 462 kts | 34° |
| 2026-04-26 15:27 | 50.19959 | 16.74737 | 35287 ft | 462 kts | 34° |
| 2026-04-26 15:27 | 50.24911 | 16.81166 | 35286 ft | 461 kts | 34° |
| 2026-04-26 15:28 | 50.29823 | 16.87556 | 35283 ft | 461 kts | 34° |
| 2026-04-26 15:28 | 50.34763 | 16.93994 | 35299 ft | 461 kts | 34° |
| 2026-04-26 15:29 | 50.39663 | 17.00402 | 35288 ft | 460 kts | 34° |
| 2026-04-26 15:30 | 50.49477 | 17.13281 | 35283 ft | 460 kts | 34° |
| 2026-04-26 15:30 | 50.54404 | 17.19747 | 35307 ft | 460 kts | 33° |
| 2026-04-26 15:31 | 50.61753 | 17.29475 | 35292 ft | 460 kts | 33° |
| 2026-04-26 15:32 | 50.67447 | 17.37035 | 35285 ft | 460 kts | 33° |
| 2026-04-26 15:32 | 50.73955 | 17.45717 | 35309 ft | 460 kts | 33° |
| 2026-04-26 15:33 | 50.78845 | 17.52264 | 35295 ft | 459 kts | 33° |
| 2026-04-26 15:33 | 50.83695 | 17.58774 | 35287 ft | 459 kts | 33° |
| 2026-04-26 15:34 | 50.88566 | 17.65340 | 35284 ft | 459 kts | 33° |
| 2026-04-26 15:34 | 50.93429 | 17.71913 | 35315 ft | 458 kts | 33° |
| 2026-04-26 15:35 | 50.98288 | 17.78504 | 35274 ft | 455 kts | 32° |
| 2026-04-26 15:35 | 51.03096 | 17.85022 | 35265 ft | 455 kts | 32° |
| 2026-04-26 15:36 | 51.07908 | 17.91560 | 35268 ft | 455 kts | 32° |
| 2026-04-26 15:36 | 51.12714 | 17.98114 | 35264 ft | 455 kts | 32° |
| 2026-04-26 15:37 | 51.17525 | 18.04680 | 35286 ft | 455 kts | 32° |
| 2026-04-26 15:37 | 51.22326 | 18.11249 | 35279 ft | 455 kts | 32° |
| 2026-04-26 15:38 | 51.27120 | 18.17838 | 35270 ft | 454 kts | 32° |
| 2026-04-26 15:38 | 51.31620 | 18.25011 | 35259 ft | 471 kts | 50° |
| 2026-04-26 15:39 | 51.33033 | 18.29815 | 35280 ft | 487 kts | 67° |
| 2026-04-26 15:39 | 51.33898 | 18.35075 | 35260 ft | 490 kts | 69° |
| 2026-04-26 15:39 | 51.34996 | 18.42101 | 35246 ft | 491 kts | 70° |
| 2026-04-26 15:40 | 51.37201 | 18.56314 | 35242 ft | 493 kts | 69° |
| 2026-04-26 15:40 | 51.38867 | 18.66979 | 35171 ft | 495 kts | 69° |
| 2026-04-26 15:41 | 51.39700 | 18.72322 | 34914 ft | 495 kts | 69° |
| 2026-04-26 15:41 | 51.40532 | 18.77677 | 34670 ft | 496 kts | 69° |
| 2026-04-26 15:41 | 51.41361 | 18.83046 | 34433 ft | 497 kts | 69° |
| 2026-04-26 15:41 | 51.42188 | 18.88442 | 34186 ft | 499 kts | 69° |
| 2026-04-26 15:42 | 51.43012 | 18.93839 | 33710 ft | 500 kts | 69° |
| 2026-04-26 15:42 | 51.43844 | 18.99287 | 32595 ft | 506 kts | 69° |
| 2026-04-26 15:42 | 51.44400 | 19.02928 | 31939 ft | 508 kts | 69° |
| 2026-04-26 15:42 | 51.45239 | 19.08431 | 30992 ft | 510 kts | 68° |
| 2026-04-26 15:43 | 51.46083 | 19.13985 | 29833 ft | 514 kts | 68° |
| 2026-04-26 15:43 | 51.46925 | 19.19569 | 28715 ft | 515 kts | 68° |
| 2026-04-26 15:43 | 51.48597 | 19.30741 | 26471 ft | 515 kts | 68° |
| 2026-04-26 15:44 | 51.49421 | 19.36296 | 25647 ft | 508 kts | 68° |
| 2026-04-26 15:44 | 51.51022 | 19.47201 | 24110 ft | 496 kts | 68° |
| 2026-04-26 15:44 | 51.51807 | 19.52554 | 23295 ft | 490 kts | 68° |
| 2026-04-26 15:45 | 51.53337 | 19.63019 | 21921 ft | 474 kts | 67° |
| 2026-04-26 15:45 | 51.54084 | 19.68138 | 21247 ft | 466 kts | 67° |
| 2026-04-26 15:46 | 51.55534 | 19.78095 | 19987 ft | 450 kts | 67° |
| 2026-04-26 15:46 | 51.56234 | 19.82946 | 19662 ft | 437 kts | 66° |
| 2026-04-26 15:46 | 51.56892 | 19.87584 | 19534 ft | 417 kts | 66° |
| 2026-04-26 15:46 | 51.57309 | 19.90550 | 19451 ft | 404 kts | 66° |
| 2026-04-26 15:47 | 51.57980 | 19.96392 | 19066 ft | 398 kts | 74° |
| 2026-04-26 15:47 | 51.57853 | 20.05354 | 18576 ft | 401 kts | 82° |
| 2026-04-26 15:47 | 51.57718 | 20.09773 | 18245 ft | 399 kts | 82° |
| 2026-04-26 15:48 | 51.57576 | 20.14223 | 17943 ft | 397 kts | 82° |
| 2026-04-26 15:48 | 51.57428 | 20.18642 | 17651 ft | 395 kts | 82° |
| 2026-04-26 15:48 | 51.57278 | 20.23026 | 17346 ft | 392 kts | 82° |
| 2026-04-26 15:48 | 51.57127 | 20.27387 | 16986 ft | 390 kts | 82° |
| 2026-04-26 15:49 | 51.56977 | 20.31740 | 16396 ft | 389 kts | 83° |
| 2026-04-26 15:49 | 51.56827 | 20.36050 | 15867 ft | 386 kts | 83° |
| 2026-04-26 15:49 | 51.56697 | 20.40322 | 15434 ft | 377 kts | 80° |
| 2026-04-26 15:49 | 51.56903 | 20.44427 | 14965 ft | 361 kts | 69° |
| 2026-04-26 15:50 | 51.57533 | 20.48238 | 14469 ft | 346 kts | 59° |
| 2026-04-26 15:50 | 51.58442 | 20.51765 | 13988 ft | 340 kts | 56° |
| 2026-04-26 15:50 | 51.59360 | 20.55256 | 13455 ft | 337 kts | 57° |
| 2026-04-26 15:50 | 51.60262 | 20.58726 | 12924 ft | 334 kts | 58° |
| 2026-04-26 15:51 | 51.61152 | 20.62167 | 12359 ft | 333 kts | 58° |
| 2026-04-26 15:51 | 51.62029 | 20.65577 | 11877 ft | 328 kts | 59° |
| 2026-04-26 15:51 | 51.62894 | 20.68948 | 11395 ft | 324 kts | 59° |
| 2026-04-26 15:51 | 51.63752 | 20.72285 | 10917 ft | 321 kts | 60° |
| 2026-04-26 15:52 | 51.64600 | 20.75587 | 10549 ft | 315 kts | 60° |
| 2026-04-26 15:52 | 51.65414 | 20.78779 | 10404 ft | 301 kts | 60° |
| 2026-04-26 15:52 | 51.66189 | 20.81826 | 10261 ft | 288 kts | 60° |
| 2026-04-26 15:52 | 51.66690 | 20.83787 | 10064 ft | 284 kts | 60° |
| 2026-04-26 15:53 | 51.67780 | 20.87578 | 9827 ft | 274 kts | 50° |
| 2026-04-26 15:53 | 51.68987 | 20.89885 | 9344 ft | 265 kts | 35° |
| 2026-04-26 15:53 | 51.70473 | 20.91534 | 8964 ft | 256 kts | 21° |
| 2026-04-26 15:53 | 51.72118 | 20.92525 | 8622 ft | 250 kts | 10° |
| 2026-04-26 15:54 | 51.73785 | 20.93340 | 8482 ft | 252 kts | 14° |
| 2026-04-26 15:54 | 51.75438 | 20.94306 | 8348 ft | 253 kts | 16° |
| 2026-04-26 15:54 | 51.77080 | 20.95318 | 8119 ft | 254 kts | 16° |
| 2026-04-26 15:54 | 51.78723 | 20.96339 | 7698 ft | 252 kts | 16° |
| 2026-04-26 15:55 | 51.80356 | 20.97349 | 7261 ft | 251 kts | 16° |
| 2026-04-26 15:55 | 51.81986 | 20.98348 | 6825 ft | 250 kts | 16° |
| 2026-04-26 15:55 | 51.83613 | 20.99339 | 6376 ft | 250 kts | 16° |
| 2026-04-26 15:55 | 51.85236 | 21.00320 | 5931 ft | 248 kts | 15° |
| 2026-04-26 15:56 | 51.86855 | 21.01296 | 5496 ft | 247 kts | 15° |
| 2026-04-26 15:56 | 51.88461 | 21.02263 | 5060 ft | 246 kts | 15° |
| 2026-04-26 15:56 | 51.90062 | 21.03223 | 4615 ft | 245 kts | 15° |
| 2026-04-26 15:56 | 51.91655 | 21.04174 | 4183 ft | 244 kts | 15° |
| 2026-04-26 15:57 | 51.93234 | 21.05116 | 3938 ft | 236 kts | 15° |
| 2026-04-26 15:57 | 51.94724 | 21.06016 | 3880 ft | 221 kts | 15° |
| 2026-04-26 15:57 | 51.96129 | 21.06869 | 3811 ft | 211 kts | 15° |
| 2026-04-26 15:57 | 51.97024 | 21.07484 | 3753 ft | 213 kts | 25° |
| 2026-04-26 15:58 | 51.98318 | 21.09956 | 3654 ft | 225 kts | 54° |
| 2026-04-26 15:58 | 51.99036 | 21.12230 | 3599 ft | 226 kts | 57° |
| 2026-04-26 15:58 | 51.99765 | 21.14381 | 3504 ft | 205 kts | 41° |
| 2026-04-26 15:58 | 52.00857 | 21.15493 | 3418 ft | 174 kts | 4° |
| 2026-04-26 15:59 | 52.01959 | 21.15149 | 3352 ft | 160 kts | 325° |
| 2026-04-26 15:59 | 52.02593 | 21.13687 | 3272 ft | 162 kts | 291° |
| 2026-04-26 15:59 | 52.02815 | 21.11953 | 3195 ft | 151 kts | 291° |
| 2026-04-26 15:59 | 52.03080 | 21.10341 | 3117 ft | 146 kts | 292° |
| 2026-04-26 16:00 | 52.03403 | 21.08809 | 3052 ft | 141 kts | 304° |
| 2026-04-26 16:00 | 52.04037 | 21.07654 | 2944 ft | 136 kts | 326° |
| 2026-04-26 16:00 | 52.04865 | 21.06911 | 2796 ft | 136 kts | 332° |
| 2026-04-26 16:00 | 52.05694 | 21.06191 | 2614 ft | 134 kts | 332° |
| 2026-04-26 16:01 | 52.06503 | 21.05489 | 2467 ft | 131 kts | 331° |
| 2026-04-26 16:01 | 52.07296 | 21.04800 | 2263 ft | 127 kts | 333° |
| 2026-04-26 16:01 | 52.08074 | 21.04123 | 2084 ft | 126 kts | 333° |
| 2026-04-26 16:01 | 52.08843 | 21.03454 | 1916 ft | 125 kts | 333° |
| 2026-04-26 16:02 | 52.09609 | 21.02787 | 1737 ft | 127 kts | 333° |
| 2026-04-26 16:02 | 52.10381 | 21.02115 | 1566 ft | 124 kts | 333° |
| 2026-04-26 16:02 | 52.11147 | 21.01448 | 1393 ft | 125 kts | 332° |
| 2026-04-26 16:02 | 52.11653 | 21.01007 | 1276 ft | 125 kts | 332° |
| 2026-04-26 16:03 | 52.12682 | 21.00111 | 1040 ft | 125 kts | 331° |
| 2026-04-26 16:03 | 52.13445 | 20.99448 | 860 ft | 124 kts | 330° |
| 2026-04-26 16:03 | 52.14205 | 20.98782 | 680 ft | 124 kts | 330° |
| 2026-04-26 16:03 | 52.14962 | 20.98119 | 500 ft | 123 kts | 330° |
| 2026-04-26 16:04 | 52.15716 | 20.97462 | 356 ft | 121 kts | 330° |
| 2026-04-26 16:04 | 52.16369 | 20.96891 | 337 ft | 81 kts | 331° |
| 2026-04-26 16:04 | 52.16706 | 20.96595 | 336 ft | 34 kts | 332° |
| 2026-04-26 16:04 | 52.16875 | 20.96448 | 336 ft | 26 kts | 331° |
| 2026-04-26 16:05 | 52.17023 | 20.96318 | 333 ft | 23 kts | 333° |
| 2026-04-26 16:05 | 52.17166 | 20.96248 | 337 ft | 20 kts | 353° |
| 2026-04-26 16:05 | 52.17299 | 20.96246 | 336 ft | 18 kts | 2° |
| 2026-04-26 16:05 | 52.17394 | 20.96285 | 335 ft | 12 kts | 47° |
| 2026-04-26 16:06 | 52.17434 | 20.96400 | 335 ft | 11 kts | 63° |
| 2026-04-26 16:06 | 52.17469 | 20.96516 | 338 ft | 13 kts | 76° |
| 2026-04-26 16:06 | 52.17413 | 20.96616 | 336 ft | 13 kts | 151° |
| 2026-04-26 16:06 | 52.17326 | 20.96692 | 336 ft | 16 kts | 152° |
| 2026-04-26 16:07 | 52.17230 | 20.96776 | 336 ft | 15 kts | 151° |
| 2026-04-26 16:07 | 52.17139 | 20.96857 | 337 ft | 15 kts | 152° |
| 2026-04-26 16:07 | 52.17058 | 20.96928 | 335 ft | 9 kts | 152° |
| 2026-04-26 16:07 | 52.17019 | 20.96962 | 335 ft | 6 kts | 152° |
| 2026-04-26 16:08 | 52.16982 | 20.96994 | 337 ft | 6 kts | 152° |
| 2026-04-26 16:08 | 52.16956 | 20.97016 | 338 ft | 6 kts | 152° |
| 2026-04-26 16:08 | 52.16894 | 20.97070 | 337 ft | 9 kts | 151° |
| 2026-04-26 16:08 | 52.16839 | 20.97119 | 336 ft | 9 kts | 152° |
| 2026-04-26 16:09 | 52.16801 | 20.97180 | 338 ft | 7 kts | 90° |
| 2026-04-26 16:09 | 52.16810 | 20.97254 | 337 ft | 6 kts | 78° |
| 2026-04-26 16:09 | 52.16816 | 20.97303 | 339 ft | 2 kts | 78° |
| 2026-04-26 16:09 | 52.16817 | 20.97308 | 339 ft | 0 kts | 78° |